Terminal Aerodrome Forecast
Issued by NWS

Home | Current Version | Previous Version | Text Only | Print | Product List | Glossary On
Versions: 1 2 3 4 5 6 7 8 9 10 11 12 13 14 15 16 17
132
FTUS45 KRIW 301330 AAA
TAFBPI
TAF AMD
KBPI 301330Z 3014/0112 18006KT 5SM -SN SCT009 OVC015
     FM301600 VRB06KT P6SM SCT030 BKN050
     FM302000 10007KT 4SM -RASN OVC025
     FM010000 08007KT P6SM SCT030 BKN060=

USA.gov is the U.S. government's official web portal to all federal, state and local government web resources and services.